createdAt,value
2017-07-14T00:01:41.368Z,15.19
2017-07-14T00:06:36.858Z,15.22
2017-07-14T00:11:33.344Z,15.17
2017-07-14T00:16:28.907Z,15.21
2017-07-14T00:21:24.819Z,15.21
2017-07-14T00:26:20.750Z,15.24
2017-07-14T00:31:17.528Z,15.11
2017-07-14T00:36:14.837Z,15.09
2017-07-14T00:41:11.424Z,15.00
2017-07-14T00:46:06.903Z,14.92
2017-07-14T00:51:03.748Z,14.85
2017-07-14T00:55:59.341Z,14.65
2017-07-14T01:00:54.899Z,14.68
2017-07-14T01:05:50.691Z,14.54
2017-07-14T01:10:46.326Z,14.62
2017-07-14T01:15:42.324Z,14.33
2017-07-14T01:20:38.055Z,14.20
2017-07-14T01:25:35.065Z,14.15
2017-07-14T01:30:31.694Z,14.08
2017-07-14T01:35:27.347Z,13.95
2017-07-14T01:40:23.390Z,14.08
2017-07-14T01:45:20.507Z,14.08
2017-07-14T01:50:17.325Z,14.18
2017-07-14T01:55:12.963Z,13.99
2017-07-14T02:00:08.452Z,13.92
2017-07-14T02:05:04.316Z,13.93
2017-07-14T02:10:01.147Z,13.89
2017-07-14T02:14:56.814Z,14.03
2017-07-14T02:19:53.832Z,14.17
2017-07-14T02:24:50.482Z,14.54
2017-07-14T02:29:46.149Z,14.48
2017-07-14T02:34:42.001Z,14.41
2017-07-14T02:39:37.861Z,14.23
2017-07-14T02:44:33.747Z,14.03
2017-07-14T02:49:29.356Z,13.96
2017-07-14T02:54:26.503Z,13.96
2017-07-14T02:59:21.887Z,14.33
2017-07-14T03:04:17.875Z,13.92
2017-07-14T03:09:13.635Z,13.74
2017-07-14T03:14:09.488Z,13.75
2017-07-14T03:19:06.443Z,13.71
2017-07-14T03:24:01.981Z,13.74
2017-07-14T03:28:58.550Z,13.67
2017-07-14T03:33:54.075Z,13.59
2017-07-14T03:38:49.645Z,13.28
2017-07-14T03:43:45.259Z,13.30
2017-07-14T03:48:40.992Z,13.27
2017-07-14T03:53:36.991Z,13.28
2017-07-14T03:58:33.871Z,13.37
2017-07-14T04:03:29.499Z,13.30
2017-07-14T04:08:25.200Z,13.15
2017-07-14T04:13:22.155Z,13.16
2017-07-14T04:18:18.928Z,13.19
2017-07-14T04:23:16.124Z,13.13
2017-07-14T04:28:11.746Z,13.27
2017-07-14T04:33:07.747Z,13.19
2017-07-14T04:38:04.726Z,13.78
2017-07-14T04:43:01.024Z,14.68
2017-07-14T04:47:57.234Z,14.97
2017-07-14T04:52:53.591Z,15.29
2017-07-14T04:57:51.264Z,15.98
2017-07-14T05:02:47.043Z,15.84
2017-07-14T05:07:43.635Z,15.80
2017-07-14T05:12:40.834Z,16.56
2017-07-14T05:17:38.150Z,16.81
2017-07-14T05:22:35.111Z,17.95
2017-07-14T05:27:31.235Z,18.80
2017-07-14T05:32:28.252Z,18.96
2017-07-14T05:37:23.818Z,18.74
2017-07-14T05:42:21.390Z,19.36
2017-07-14T05:47:17.457Z,19.85
2017-07-14T05:52:13.674Z,20.34
2017-07-14T05:57:09.628Z,20.25
2017-07-14T06:02:05.624Z,19.77
2017-07-14T06:07:02.640Z,19.00
2017-07-14T06:11:58.059Z,18.34
2017-07-14T06:16:53.243Z,17.95
2017-07-14T06:21:48.708Z,17.68
2017-07-14T06:26:45.334Z,17.54
2017-07-14T06:31:41.749Z,17.57
2017-07-14T06:36:37.387Z,17.56
2017-07-14T06:41:33.154Z,17.67
2017-07-14T06:46:29.176Z,17.59
2017-07-14T06:51:25.438Z,17.76
2017-07-14T06:56:21.010Z,17.78
2017-07-14T07:01:18.450Z,18.08
2017-07-14T07:06:14.069Z,18.15
2017-07-14T07:11:10.331Z,18.37
2017-07-14T07:16:06.248Z,18.78
2017-07-14T07:21:02.316Z,18.92
2017-07-14T07:25:58.818Z,18.75
2017-07-14T07:30:54.753Z,19.14
2017-07-14T07:35:50.842Z,19.12
2017-07-14T07:40:46.775Z,19.14
2017-07-14T07:45:42.768Z,19.30
2017-07-14T07:50:38.935Z,19.56
2017-07-14T07:55:35.372Z,20.29
2017-07-14T08:00:33.508Z,20.96
2017-07-14T08:05:33.257Z,21.82
2017-07-14T08:10:28.733Z,21.95
2017-07-14T08:15:24.532Z,21.77
2017-07-14T08:20:23.695Z,21.61
2017-07-14T08:25:19.514Z,21.77
2017-07-14T08:30:15.419Z,21.85
2017-07-14T08:35:11.797Z,21.87
2017-07-14T08:40:06.793Z,21.52
2017-07-14T08:45:06.073Z,22.36
2017-07-14T08:50:01.594Z,22.44
2017-07-14T08:54:59.281Z,23.28
2017-07-14T08:59:57.057Z,24.10
2017-07-14T09:04:54.891Z,24.03
2017-07-14T09:09:51.314Z,24.16
2017-07-14T09:19:47.604Z,22.35
2017-07-14T09:24:46.712Z,23.15
2017-07-14T09:29:43.820Z,23.58
2017-07-14T09:34:40.189Z,23.71
2017-07-14T09:39:37.321Z,23.61
2017-07-14T09:44:33.309Z,23.80
2017-07-14T09:49:28.161Z,22.98
2017-07-14T09:54:23.465Z,22.88
2017-07-14T09:59:19.210Z,23.00
2017-07-14T10:04:16.848Z,22.93
2017-07-14T10:09:14.127Z,23.83
2017-07-14T10:14:11.154Z,23.61
2017-07-14T10:19:10.094Z,23.91
2017-07-14T10:24:04.538Z,23.36
2017-07-14T10:28:59.014Z,22.99
2017-07-14T10:33:53.550Z,22.93
2017-07-14T10:38:48.633Z,22.62
2017-07-14T10:43:45.056Z,22.45
2017-07-14T10:48:41.320Z,22.23
2017-07-14T10:53:37.628Z,22.54
2017-07-14T10:58:34.893Z,22.75
2017-07-14T11:03:31.380Z,22.83
2017-07-14T11:08:26.733Z,22.51
2017-07-14T11:13:21.673Z,22.33
2017-07-14T11:18:17.484Z,22.38
2017-07-14T11:23:13.500Z,22.35
2017-07-14T11:28:09.252Z,22.07
2017-07-14T11:33:04.405Z,21.82
2017-07-14T11:38:00.937Z,21.79
2017-07-14T11:42:57.677Z,21.80
2017-07-14T11:47:52.998Z,21.76
2017-07-14T11:52:48.713Z,21.55
2017-07-14T11:57:44.466Z,21.58
2017-07-14T12:02:40.921Z,21.43
2017-07-14T12:07:36.661Z,21.40
2017-07-14T12:12:32.524Z,21.54
2017-07-14T12:17:28.627Z,21.40
2017-07-14T12:22:24.687Z,21.36
2017-07-14T12:27:20.919Z,21.55
2017-07-14T12:32:17.889Z,21.48
2017-07-14T12:37:13.215Z,21.29
2017-07-14T12:42:08.634Z,20.69
2017-07-14T12:47:05.140Z,20.52
2017-07-14T12:52:01.649Z,20.62
2017-07-14T12:56:57.372Z,20.60
2017-07-14T13:01:53.389Z,20.72
2017-07-14T13:06:50.838Z,20.74
2017-07-14T13:11:47.115Z,20.92
2017-07-14T13:16:44.700Z,21.25
2017-07-14T13:21:40.255Z,21.12
2017-07-14T13:26:38.517Z,21.27
2017-07-14T13:31:35.180Z,21.43
2017-07-14T13:36:31.647Z,21.45
2017-07-14T13:41:27.173Z,21.00
2017-07-14T13:46:22.725Z,20.99
2017-07-14T13:51:18.031Z,20.87
2017-07-14T13:56:15.027Z,20.84
2017-07-14T14:01:10.486Z,20.72
2017-07-14T14:06:08.019Z,20.67
2017-07-14T14:11:04.113Z,20.58
2017-07-14T14:15:59.871Z,20.29
2017-07-14T14:20:57.120Z,20.34
2017-07-14T14:25:53.652Z,20.14
2017-07-14T14:30:50.644Z,19.91
2017-07-14T14:35:47.180Z,19.73
2017-07-14T14:40:42.592Z,19.48
2017-07-14T14:45:39.734Z,19.21
2017-07-14T14:50:35.060Z,18.90
2017-07-14T14:55:32.267Z,18.89
2017-07-14T15:00:28.554Z,18.71
2017-07-14T15:05:24.097Z,18.77
2017-07-14T15:10:20.928Z,18.70
2017-07-14T15:15:16.345Z,18.41
2017-07-14T15:20:12.479Z,18.52
2017-07-14T15:25:08.337Z,18.34
2017-07-14T15:30:03.971Z,18.25
2017-07-14T15:34:59.798Z,18.31
2017-07-14T15:39:56.554Z,18.20
2017-07-14T15:44:52.050Z,18.13
2017-07-14T15:49:47.741Z,18.23
2017-07-14T15:54:44.432Z,17.95
2017-07-14T15:59:41.474Z,17.86
2017-07-14T16:04:37.151Z,17.87
2017-07-14T16:09:33.234Z,18.01
2017-07-14T16:14:30.239Z,17.95
2017-07-14T16:19:25.993Z,18.04
2017-07-14T16:24:23.020Z,18.01
2017-07-14T16:29:18.526Z,17.86
2017-07-14T16:34:15.695Z,18.03
2017-07-14T16:39:11.010Z,17.92
2017-07-14T16:44:08.481Z,17.85
2017-07-14T16:49:04.052Z,17.90
2017-07-14T16:53:59.706Z,17.87
2017-07-14T16:58:56.503Z,17.87
2017-07-14T17:03:52.328Z,18.10
2017-07-14T17:08:48.453Z,18.01
2017-07-14T17:13:45.002Z,17.98
2017-07-14T17:18:41.847Z,18.00
2017-07-14T17:23:38.194Z,17.90
2017-07-14T17:28:33.716Z,17.92
2017-07-14T17:33:29.578Z,17.90
2017-07-14T17:38:25.251Z,17.78
2017-07-14T17:43:21.016Z,17.76
2017-07-14T17:48:18.955Z,17.82
2017-07-14T17:53:15.365Z,17.79
2017-07-14T17:58:12.862Z,17.68
2017-07-14T18:03:08.474Z,17.68
2017-07-14T18:08:04.485Z,17.70
2017-07-14T18:13:00.477Z,17.82
2017-07-14T18:17:56.513Z,17.59
2017-07-14T18:22:53.368Z,17.59
2017-07-14T18:27:50.925Z,17.46
2017-07-14T18:32:47.291Z,17.15
2017-07-14T18:37:42.432Z,17.22
2017-07-14T18:42:39.791Z,17.14
2017-07-14T18:47:36.944Z,17.05
2017-07-14T18:52:32.532Z,17.01
2017-07-14T18:57:29.001Z,17.04
2017-07-14T19:02:26.537Z,17.06
2017-07-14T19:07:24.468Z,16.99
2017-07-14T19:12:19.714Z,17.04
2017-07-14T19:17:17.177Z,16.99
2017-07-14T19:22:13.589Z,16.89
2017-07-14T19:27:10.352Z,16.84
2017-07-14T19:32:08.305Z,16.56
2017-07-14T19:37:04.612Z,16.57
2017-07-14T19:42:01.324Z,16.38
2017-07-14T19:46:56.617Z,16.46
2017-07-14T19:51:53.645Z,16.39
2017-07-14T19:56:50.545Z,16.51
2017-07-14T20:01:47.077Z,16.46
2017-07-14T20:06:42.692Z,16.50
2017-07-14T20:11:39.559Z,16.53
2017-07-14T20:16:36.210Z,16.53
2017-07-14T20:21:31.856Z,16.43
2017-07-14T20:26:27.566Z,16.43
2017-07-14T20:31:23.918Z,16.38
2017-07-14T20:36:19.787Z,16.38
2017-07-14T20:41:17.634Z,16.17
2017-07-14T20:46:13.179Z,15.95
2017-07-14T20:51:09.173Z,15.91
2017-07-14T20:56:05.878Z,15.73
2017-07-14T21:01:01.269Z,15.46
2017-07-14T21:05:56.877Z,15.37
2017-07-14T21:10:52.705Z,15.37
2017-07-14T21:15:49.037Z,15.43
2017-07-14T21:20:44.958Z,15.40
2017-07-14T21:25:41.814Z,15.37
2017-07-14T21:30:37.361Z,15.31
2017-07-14T21:35:33.056Z,15.24
2017-07-14T21:40:29.947Z,15.29
2017-07-14T21:45:25.308Z,15.47
2017-07-14T21:50:21.194Z,15.39
2017-07-14T21:55:17.112Z,15.40
2017-07-14T22:00:13.149Z,15.31
2017-07-14T22:05:09.134Z,15.35
2017-07-14T22:10:05.899Z,15.33
2017-07-14T22:15:02.874Z,15.29
2017-07-14T22:19:58.363Z,15.19
2017-07-14T22:24:54.496Z,15.25
2017-07-14T22:29:50.284Z,15.17
2017-07-14T22:34:46.020Z,15.18
2017-07-14T22:39:42.126Z,15.18
2017-07-14T22:44:38.911Z,15.07
2017-07-14T22:49:35.442Z,15.29
2017-07-14T22:54:30.905Z,15.17
2017-07-14T22:59:26.699Z,15.19
2017-07-14T23:04:22.642Z,15.09
2017-07-14T23:09:18.290Z,15.02
2017-07-14T23:14:14.758Z,15.11
2017-07-14T23:19:10.867Z,14.97
2017-07-14T23:24:06.552Z,15.04
2017-07-14T23:29:02.953Z,15.17
2017-07-14T23:33:58.965Z,15.09
2017-07-14T23:38:54.732Z,15.15
2017-07-14T23:43:51.264Z,15.03
2017-07-14T23:48:47.347Z,15.03
2017-07-14T23:53:43.328Z,14.85
2017-07-14T23:58:39.521Z,14.85
